Helmsley, United Kingdom
Current Conditions -  °F | °C
As of 11:50 PM on Thursday 18 Dec 2014 (Local Time) from EGXZ Reporting Station
Broken Clouds Broken Clouds  
Wind Chill:   Ceiling: 17000
Heat Index:   Visibility: 6mi
Dew Point:   Wind: 7mph
Humidity: 87%   Direction: 270°W
Pressure: 29.59"   Gusts: NA
Location:  54.25°N, 1.06°W
Report Text: EGXZ 182350Z AUTO 27006KT 9999 FEW060/// BKN170/// 09/07 Q1002
Loading
Personal Weather Stations






























Interactive Weather Map New forecast layout! Learn more

10-Day Weather Forecast

Advertisements
Track Severe Weather on mobile